createdAt,value
2017-06-02T00:01:32.517Z,83.00
2017-06-02T00:04:07.567Z,83.00
2017-06-02T00:06:43.299Z,83.90
2017-06-02T00:09:18.427Z,84.80
2017-06-02T00:11:53.782Z,84.80
2017-06-02T00:14:28.815Z,84.60
2017-06-02T00:17:04.084Z,84.40
2017-06-02T00:19:39.620Z,84.60
2017-06-02T00:22:14.832Z,83.80
2017-06-02T00:24:49.975Z,83.80
2017-06-02T00:27:25.308Z,83.40
2017-06-02T00:30:00.454Z,83.20
2017-06-02T00:32:35.483Z,84.40
2017-06-02T00:35:11.341Z,83.60
2017-06-02T00:37:46.473Z,83.40
2017-06-02T00:40:21.602Z,83.90
2017-06-02T00:42:56.953Z,83.90
2017-06-02T00:45:31.934Z,83.90
2017-06-02T00:48:07.225Z,83.90
2017-06-02T00:50:42.255Z,83.50
2017-06-02T00:53:17.592Z,83.00
2017-06-02T00:55:52.633Z,83.00
2017-06-02T00:58:27.966Z,82.90
2017-06-02T01:01:03.206Z,81.50
2017-06-02T01:03:38.429Z,82.20
2017-06-02T01:06:13.596Z,82.40
2017-06-02T01:08:48.823Z,82.20
2017-06-02T01:11:23.847Z,81.90
2017-06-02T01:13:59.095Z,82.60
2017-06-02T01:16:34.052Z,82.50
2017-06-02T01:19:09.258Z,83.30
2017-06-02T01:21:44.424Z,84.00
2017-06-02T01:24:19.592Z,84.70
2017-06-02T01:26:54.719Z,84.90
2017-06-02T01:29:29.980Z,84.50
2017-06-02T01:32:04.959Z,84.70
2017-06-02T01:34:40.199Z,84.80
2017-06-02T01:37:15.223Z,85.70
2017-06-02T01:39:50.703Z,85.70
2017-06-02T01:42:25.627Z,85.00
2017-06-02T01:45:00.930Z,83.60
2017-06-02T01:47:36.081Z,84.50
2017-06-02T01:50:11.307Z,83.50
2017-06-02T01:52:46.239Z,85.10
2017-06-02T01:55:21.591Z,85.40
2017-06-02T01:57:57.051Z,85.30
2017-06-02T02:00:32.367Z,84.70
2017-06-02T02:03:07.311Z,85.40
2017-06-02T02:05:42.642Z,86.50
2017-06-02T02:08:17.784Z,87.00
2017-06-02T02:10:52.890Z,85.60
2017-06-02T02:13:27.856Z,85.50
2017-06-02T02:16:02.889Z,85.20
2017-06-02T02:18:37.881Z,85.80
2017-06-02T02:21:13.135Z,85.50
2017-06-02T02:23:48.318Z,85.40
2017-06-02T02:26:23.630Z,85.10
2017-06-02T02:28:58.772Z,84.90
2017-06-02T02:31:34.212Z,84.80
2017-06-02T02:34:09.363Z,85.20
2017-06-02T02:36:44.595Z,85.60
2017-06-02T02:39:19.589Z,85.80
2017-06-02T02:41:54.847Z,86.00
2017-06-02T02:44:29.983Z,86.10
2017-06-02T02:47:05.477Z,86.00
2017-06-02T02:49:40.475Z,85.00
2017-06-02T02:52:15.911Z,86.50
2017-06-02T02:54:51.056Z,86.70
2017-06-02T02:57:26.207Z,86.90
2017-06-02T03:00:01.327Z,87.00
2017-06-02T03:02:36.378Z,86.10
2017-06-02T03:05:11.507Z,86.40
2017-06-02T03:07:46.737Z,87.20
2017-06-02T03:10:21.765Z,87.00
2017-06-02T03:12:56.906Z,85.60
2017-06-02T03:15:31.846Z,86.40
2017-06-02T03:18:06.879Z,87.30
2017-06-02T03:20:41.866Z,89.00
2017-06-02T03:23:17.154Z,88.40
2017-06-02T03:25:52.186Z,87.60
2017-06-02T03:28:27.415Z,87.00
2017-06-02T03:31:02.303Z,87.50
2017-06-02T03:33:37.699Z,87.70
2017-06-02T03:36:12.836Z,87.70
2017-06-02T03:38:48.070Z,87.90
2017-06-02T03:41:22.956Z,87.80
2017-06-02T03:43:58.217Z,88.00
2017-06-02T03:46:33.295Z,87.80
2017-06-02T03:49:08.717Z,87.40
2017-06-02T03:51:43.815Z,87.70
2017-06-02T03:54:18.930Z,87.30
2017-06-02T03:56:53.932Z,87.30
2017-06-02T03:59:29.055Z,87.30
2017-06-02T04:02:04.198Z,87.10
2017-06-02T04:04:39.526Z,86.60
2017-06-02T04:07:15.489Z,85.90
2017-06-02T04:09:50.834Z,85.60
2017-06-02T04:12:25.972Z,85.90
2017-06-02T04:15:01.073Z,86.00
2017-06-02T04:17:36.010Z,85.80
2017-06-02T04:20:11.272Z,85.70
2017-06-02T04:22:46.207Z,84.30
2017-06-02T04:25:21.545Z,82.60
2017-06-02T04:27:56.945Z,82.30
2017-06-02T04:30:32.038Z,82.30
2017-06-02T04:33:07.066Z,81.40
2017-06-02T04:35:42.504Z,81.00
2017-06-02T04:38:17.847Z,80.50
2017-06-02T04:40:53.183Z,80.40
2017-06-02T04:43:28.317Z,80.70
2017-06-02T04:46:03.558Z,80.40
2017-06-02T04:48:38.905Z,80.40
2017-06-02T04:51:14.036Z,80.50
2017-06-02T04:53:49.183Z,79.90
2017-06-02T04:56:24.255Z,79.40
2017-06-02T04:58:59.362Z,79.50
2017-06-02T05:01:34.682Z,79.20
2017-06-02T05:04:09.772Z,79.20
2017-06-02T05:06:44.792Z,79.30
2017-06-02T05:09:20.134Z,78.80
2017-06-02T05:11:55.570Z,78.00
2017-06-02T05:14:30.678Z,77.80
2017-06-02T05:17:06.012Z,78.30
2017-06-02T05:19:41.020Z,78.00
2017-06-02T05:22:16.388Z,76.60
2017-06-02T05:24:51.443Z,76.00
2017-06-02T05:27:26.864Z,75.20
2017-06-02T05:30:02.005Z,74.60
2017-06-02T05:32:37.351Z,74.30
2017-06-02T05:35:12.514Z,74.00
2017-06-02T05:37:47.675Z,70.10
2017-06-02T05:40:22.652Z,68.00
2017-06-02T05:42:57.882Z,66.70
2017-06-02T05:45:33.055Z,64.70
2017-06-02T05:48:08.364Z,62.80
2017-06-02T05:50:43.386Z,61.10
2017-06-02T05:53:18.737Z,60.80
2017-06-02T05:55:54.290Z,59.40
2017-06-02T05:58:29.391Z,58.80
2017-06-02T06:01:04.505Z,59.10
2017-06-02T06:03:39.896Z,58.50
2017-06-02T06:06:15.135Z,58.70
2017-06-02T06:08:50.384Z,57.80
2017-06-02T06:11:25.540Z,58.30
2017-06-02T06:14:00.756Z,58.10
2017-06-02T06:16:35.901Z,57.20
2017-06-02T06:19:11.539Z,56.90
2017-06-02T06:21:46.707Z,56.80
2017-06-02T06:24:21.914Z,56.60
2017-06-02T06:26:56.865Z,56.60
2017-06-02T06:29:32.055Z,56.10
2017-06-02T06:32:07.331Z,56.50
2017-06-02T06:34:42.671Z,56.20
2017-06-02T06:37:17.614Z,55.70
2017-06-02T06:39:53.036Z,55.50
2017-06-02T06:42:27.979Z,55.40
2017-06-02T06:45:03.539Z,54.70
2017-06-02T06:47:38.539Z,53.60
2017-06-02T06:50:13.887Z,53.20
2017-06-02T06:52:42.894Z,51.80
2017-06-02T06:55:11.783Z,51.20
2017-06-02T06:57:40.680Z,51.80
2017-06-02T07:00:09.560Z,51.40
2017-06-02T07:02:38.452Z,51.30
2017-06-02T07:05:07.274Z,51.20
2017-06-02T07:07:36.552Z,51.70
2017-06-02T07:10:05.728Z,51.30
2017-06-02T07:12:34.827Z,51.60
2017-06-02T07:15:03.942Z,51.10
2017-06-02T07:17:32.995Z,50.90
2017-06-02T07:20:02.112Z,50.80
2017-06-02T07:22:31.344Z,50.60
2017-06-02T07:25:00.339Z,51.10
2017-06-02T07:27:29.192Z,50.20
2017-06-02T07:29:58.026Z,50.00
2017-06-02T07:32:26.904Z,49.60
2017-06-02T07:34:55.812Z,49.40
2017-06-02T07:37:24.845Z,48.10
2017-06-02T07:39:53.695Z,48.40
2017-06-02T07:42:22.533Z,47.60
2017-06-02T07:44:51.371Z,47.60
2017-06-02T07:47:20.423Z,47.30
2017-06-02T07:49:49.314Z,47.10
2017-06-02T07:52:18.183Z,47.20
2017-06-02T07:54:47.087Z,47.80
2017-06-02T07:57:15.952Z,47.50
2017-06-02T07:59:45.168Z,48.00
2017-06-02T08:02:14.022Z,48.30
2017-06-02T08:04:42.842Z,47.90
2017-06-02T08:07:11.866Z,47.60
2017-06-02T08:09:40.687Z,46.80
2017-06-02T08:12:09.651Z,46.50
2017-06-02T08:14:38.513Z,45.80
2017-06-02T08:17:07.903Z,45.80
2017-06-02T08:19:36.756Z,45.80
2017-06-02T08:22:05.604Z,45.30
2017-06-02T08:24:34.456Z,45.50
2017-06-02T08:27:03.300Z,46.30
2017-06-02T08:29:32.254Z,45.80
2017-06-02T08:32:01.152Z,45.50
2017-06-02T08:34:29.991Z,44.70
2017-06-02T08:36:58.934Z,44.60
2017-06-02T08:39:27.751Z,45.30
2017-06-02T08:41:56.854Z,45.30
2017-06-02T08:44:25.687Z,44.90
2017-06-02T08:46:54.663Z,45.00
2017-06-02T08:49:23.511Z,45.40
2017-06-02T08:51:52.369Z,45.60
2017-06-02T08:54:21.271Z,44.60
2017-06-02T08:56:50.454Z,43.60
2017-06-02T08:59:19.759Z,44.10
2017-06-02T09:01:48.963Z,44.40
2017-06-02T09:04:18.151Z,45.10
2017-06-02T09:06:47.283Z,45.30
2017-06-02T09:09:16.423Z,44.50
2017-06-02T09:11:45.739Z,45.00
2017-06-02T09:14:14.839Z,44.00
2017-06-02T09:16:43.927Z,44.50
2017-06-02T09:19:13.163Z,44.00
2017-06-02T09:21:42.422Z,43.70
2017-06-02T09:24:11.539Z,43.70
2017-06-02T09:26:40.725Z,41.80
2017-06-02T09:29:10.175Z,42.10
2017-06-02T09:31:39.327Z,41.40
2017-06-02T09:34:08.511Z,41.20
2017-06-02T09:36:37.651Z,42.10
2017-06-02T09:39:06.759Z,43.20
2017-06-02T09:41:36.219Z,44.20
2017-06-02T09:44:05.329Z,43.30
2017-06-02T09:46:34.498Z,42.20
2017-06-02T09:49:03.715Z,42.60
2017-06-02T09:51:33.000Z,43.20
2017-06-02T09:54:02.118Z,44.70
2017-06-02T09:56:31.295Z,45.20
2017-06-02T09:59:00.598Z,44.10
2017-06-02T10:01:29.784Z,43.80
2017-06-02T10:03:58.903Z,43.80
2017-06-02T10:06:28.084Z,43.90
2017-06-02T10:08:57.199Z,43.60
2017-06-02T10:11:26.380Z,43.80
2017-06-02T10:13:55.476Z,43.00
2017-06-02T10:16:24.728Z,43.00
2017-06-02T10:18:53.863Z,43.10
2017-06-02T10:21:23.802Z,42.60
2017-06-02T10:23:52.914Z,42.90
2017-06-02T10:26:22.011Z,43.00
2017-06-02T10:28:51.415Z,42.40
2017-06-02T10:31:20.519Z,42.80
2017-06-02T10:33:49.611Z,42.70
2017-06-02T10:36:18.724Z,42.60
2017-06-02T10:38:47.835Z,42.20
2017-06-02T10:41:16.954Z,42.30
2017-06-02T10:43:46.143Z,41.80
2017-06-02T10:46:15.430Z,41.30
2017-06-02T10:48:44.641Z,40.60
2017-06-02T10:51:13.747Z,40.20
2017-06-02T10:53:42.871Z,40.50
2017-06-02T10:56:11.976Z,41.70
2017-06-02T10:58:41.387Z,40.60
2017-06-02T11:01:10.492Z,40.50
2017-06-02T11:03:39.604Z,40.30
2017-06-02T11:06:08.824Z,39.80
2017-06-02T11:08:38.122Z,38.20
2017-06-02T11:11:07.226Z,37.90
2017-06-02T11:13:36.402Z,37.80
2017-06-02T11:16:05.805Z,37.90
2017-06-02T11:18:34.918Z,36.20
2017-06-02T11:21:04.031Z,35.70
2017-06-02T11:23:33.160Z,36.00
2017-06-02T11:26:02.292Z,37.30
2017-06-02T11:28:31.527Z,37.00
2017-06-02T11:31:00.707Z,37.50
2017-06-02T11:33:29.886Z,37.10
2017-06-02T11:35:59.015Z,36.40
2017-06-02T11:38:28.123Z,34.70
2017-06-02T11:40:57.435Z,35.90
2017-06-02T11:43:26.530Z,37.20
2017-06-02T11:45:55.795Z,35.90
2017-06-02T11:48:24.965Z,35.40
2017-06-02T11:50:54.067Z,35.50
2017-06-02T11:53:23.234Z,35.90
2017-06-02T11:55:52.442Z,35.60
2017-06-02T11:58:21.857Z,34.90
2017-06-02T12:00:51.146Z,36.00
2017-06-02T12:03:20.242Z,34.80
2017-06-02T12:05:49.551Z,35.20
2017-06-02T12:08:18.779Z,33.40
2017-06-02T12:10:48.150Z,34.40
2017-06-02T12:13:17.252Z,34.60
2017-06-02T12:15:46.752Z,34.40
2017-06-02T12:18:16.091Z,34.50
2017-06-02T12:20:45.274Z,34.60
2017-06-02T12:23:14.751Z,34.30
2017-06-02T12:25:43.947Z,33.50
2017-06-02T12:28:13.029Z,34.30
2017-06-02T12:30:42.159Z,33.40
2017-06-02T12:33:11.259Z,34.00
2017-06-02T12:35:40.936Z,34.10
2017-06-02T12:38:10.640Z,33.80
2017-06-02T12:40:39.737Z,33.40
2017-06-02T12:43:10.051Z,33.70
2017-06-02T12:45:39.571Z,32.90
2017-06-02T12:48:08.863Z,33.30
2017-06-02T12:50:39.291Z,32.70
2017-06-02T12:53:08.438Z,33.20
2017-06-02T12:55:37.575Z,33.50
2017-06-02T12:58:06.658Z,33.20
2017-06-02T13:00:36.701Z,33.10
2017-06-02T13:03:06.264Z,33.20
2017-06-02T13:05:35.608Z,33.10
2017-06-02T13:08:05.110Z,33.00
2017-06-02T13:10:37.491Z,33.20
2017-06-02T13:13:06.680Z,34.20
2017-06-02T13:15:35.778Z,34.60
2017-06-02T13:18:04.906Z,35.10
2017-06-02T13:20:34.011Z,34.20
2017-06-02T13:23:03.261Z,34.60
2017-06-02T13:25:33.179Z,34.10
2017-06-02T13:28:02.379Z,33.90
2017-06-02T13:30:31.677Z,33.60
2017-06-02T13:33:00.795Z,33.30
2017-06-02T13:35:30.271Z,33.00
2017-06-02T13:37:59.391Z,32.50
2017-06-02T13:40:28.566Z,32.60
2017-06-02T13:42:57.717Z,33.00
2017-06-02T13:45:26.797Z,34.80
2017-06-02T13:47:56.150Z,35.20
2017-06-02T13:50:25.346Z,35.50
2017-06-02T13:52:54.547Z,35.10
2017-06-02T13:55:23.675Z,35.20
2017-06-02T13:57:52.839Z,35.80
2017-06-02T14:00:22.319Z,36.10
2017-06-02T14:02:51.543Z,36.60
2017-06-02T14:05:20.641Z,34.40
2017-06-02T14:07:49.762Z,35.70
2017-06-02T14:10:18.939Z,35.20
2017-06-02T14:12:48.231Z,34.90
2017-06-02T14:15:17.343Z,34.70
2017-06-02T14:17:46.623Z,33.70
2017-06-02T14:20:15.923Z,33.80
2017-06-02T14:22:45.126Z,34.80
2017-06-02T14:25:14.227Z,33.50
2017-06-02T14:27:43.348Z,33.80
2017-06-02T14:30:12.451Z,34.50
2017-06-02T14:32:41.927Z,33.70
2017-06-02T14:35:11.028Z,33.90
2017-06-02T14:37:40.209Z,34.40
2017-06-02T14:40:09.323Z,36.20
2017-06-02T14:42:38.422Z,35.90
2017-06-02T14:45:07.763Z,35.90
2017-06-02T14:47:36.867Z,36.70
2017-06-02T14:50:06.283Z,36.60
2017-06-02T14:52:35.398Z,36.50
2017-06-02T14:55:04.485Z,36.50
2017-06-02T14:57:33.619Z,35.70
2017-06-02T15:00:02.915Z,35.70
2017-06-02T15:02:32.177Z,34.70
2017-06-02T15:05:01.387Z,34.80
2017-06-02T15:07:30.525Z,34.50
2017-06-02T15:09:59.593Z,34.40
2017-06-02T15:12:28.762Z,33.50
2017-06-02T15:14:57.895Z,32.40
2017-06-02T15:17:27.066Z,31.90
2017-06-02T15:19:56.352Z,30.40
2017-06-02T15:22:25.549Z,29.10
2017-06-02T15:24:54.642Z,28.90
2017-06-02T15:27:23.831Z,28.30
2017-06-02T15:29:53.030Z,27.40
2017-06-02T15:32:22.158Z,26.10
2017-06-02T15:34:51.327Z,25.50
2017-06-02T15:37:20.631Z,25.00
2017-06-02T15:39:49.878Z,24.90
2017-06-02T15:42:18.987Z,24.70
2017-06-02T15:44:48.120Z,24.80
2017-06-02T15:47:17.231Z,24.70
2017-06-02T15:49:46.578Z,23.90
2017-06-02T15:52:15.680Z,23.10
2017-06-02T15:54:44.915Z,22.70
2017-06-02T15:57:14.011Z,21.80
2017-06-02T15:59:43.131Z,22.40
2017-06-02T16:02:12.371Z,22.60
2017-06-02T16:04:41.471Z,22.30
2017-06-02T16:07:10.588Z,22.10
2017-06-02T16:09:39.730Z,21.90
2017-06-02T16:12:08.826Z,22.60
2017-06-02T16:14:38.065Z,23.30
2017-06-02T16:17:07.185Z,23.10
2017-06-02T16:19:36.290Z,22.70
2017-06-02T16:22:05.414Z,22.30
2017-06-02T16:24:34.535Z,21.70
2017-06-02T16:27:03.664Z,21.20
2017-06-02T16:29:32.812Z,21.10
2017-06-02T16:32:02.066Z,21.30
2017-06-02T16:34:31.184Z,21.50
2017-06-02T16:37:00.291Z,21.40
2017-06-02T16:39:29.534Z,21.40
2017-06-02T16:41:58.611Z,20.10
2017-06-02T16:44:27.726Z,19.90
2017-06-02T16:46:56.831Z,19.50
2017-06-02T16:49:26.294Z,19.70
2017-06-02T16:51:55.407Z,20.20
2017-06-02T16:54:24.499Z,19.70
2017-06-02T16:56:53.630Z,19.40
2017-06-02T16:59:22.825Z,19.50
2017-06-02T17:01:51.192Z,19.50
2017-06-02T17:04:20.382Z,19.30
2017-06-02T17:06:49.670Z,19.40
2017-06-02T17:09:18.878Z,19.30
2017-06-02T17:11:47.975Z,19.30
2017-06-02T17:14:17.110Z,19.30
2017-06-02T17:16:46.219Z,19.80
2017-06-02T17:19:15.356Z,20.00
2017-06-02T17:21:44.439Z,20.10
2017-06-02T17:24:13.564Z,20.50
2017-06-02T17:26:42.649Z,20.60
2017-06-02T17:29:12.142Z,20.80
2017-06-02T17:31:41.237Z,21.20
2017-06-02T17:34:10.346Z,20.90
2017-06-02T17:36:39.486Z,20.80
2017-06-02T17:39:08.599Z,21.80
2017-06-02T17:41:38.051Z,21.80
2017-06-02T17:44:07.147Z,22.20
2017-06-02T17:46:36.426Z,22.60
2017-06-02T17:49:05.546Z,23.10
2017-06-02T17:51:34.643Z,23.80
2017-06-02T17:54:03.767Z,24.60
2017-06-02T17:56:32.862Z,25.20
2017-06-02T17:59:01.978Z,25.80
2017-06-02T18:01:31.195Z,25.90
2017-06-02T18:04:00.605Z,26.80
2017-06-02T18:06:29.658Z,27.60
2017-06-02T18:08:58.787Z,28.30
2017-06-02T18:11:27.979Z,29.10
2017-06-02T18:13:57.186Z,29.80
2017-06-02T18:16:26.480Z,30.80
2017-06-02T18:18:55.581Z,32.00
2017-06-02T18:21:24.689Z,31.60
2017-06-02T18:23:53.792Z,31.60
2017-06-02T18:26:23.013Z,32.20
2017-06-02T18:28:53.499Z,32.70
2017-06-02T18:31:22.592Z,33.40
2017-06-02T18:33:52.014Z,34.10
2017-06-02T18:36:21.179Z,34.40
2017-06-02T18:38:50.283Z,34.60
2017-06-02T18:41:19.386Z,34.90
2017-06-02T18:43:48.446Z,34.40
2017-06-02T18:46:17.671Z,35.10
2017-06-02T18:48:46.743Z,34.40
2017-06-02T18:51:15.880Z,35.10
2017-06-02T18:53:44.989Z,35.00
2017-06-02T18:56:14.066Z,35.00
2017-06-02T18:58:43.159Z,35.30
2017-06-02T19:01:12.386Z,35.40
2017-06-02T19:03:41.508Z,34.80
2017-06-02T19:06:10.827Z,34.80
2017-06-02T19:08:40.035Z,35.10
2017-06-02T19:11:09.085Z,34.60
2017-06-02T19:13:38.190Z,35.00
2017-06-02T19:16:07.267Z,34.60
2017-06-02T19:18:36.466Z,34.70
2017-06-02T19:21:05.612Z,35.40
2017-06-02T19:23:34.704Z,35.50
2017-06-02T19:26:03.862Z,34.50
2017-06-02T19:28:32.968Z,34.80
2017-06-02T19:31:02.184Z,34.90
2017-06-02T19:33:31.262Z,34.90
2017-06-02T19:36:00.343Z,35.30
2017-06-02T19:38:29.495Z,35.40
2017-06-02T19:40:58.610Z,35.80
2017-06-02T19:43:28.092Z,35.70
2017-06-02T19:45:57.271Z,36.50
2017-06-02T19:48:26.340Z,36.40
2017-06-02T19:50:55.468Z,36.60
2017-06-02T19:53:24.787Z,36.70
2017-06-02T19:55:53.973Z,36.90
2017-06-02T19:58:23.040Z,37.40
2017-06-02T20:00:52.185Z,37.90
2017-06-02T20:03:21.269Z,38.20
2017-06-02T20:05:50.547Z,38.30
2017-06-02T20:08:19.629Z,38.50
2017-06-02T20:10:48.683Z,38.40
2017-06-02T20:13:17.986Z,38.30
2017-06-02T20:15:47.058Z,38.10
2017-06-02T20:18:16.153Z,37.80
2017-06-02T20:20:45.311Z,37.40
2017-06-02T20:23:14.616Z,37.00
2017-06-02T20:25:43.687Z,36.80
2017-06-02T20:28:12.806Z,37.00
2017-06-02T20:30:42.108Z,37.10
2017-06-02T20:33:11.159Z,37.10
2017-06-02T20:35:40.274Z,37.10
2017-06-02T20:38:09.526Z,37.50
2017-06-02T20:40:39.151Z,37.70
2017-06-02T20:43:08.302Z,37.80
2017-06-02T20:45:37.605Z,38.00
2017-06-02T20:48:06.672Z,38.20
2017-06-02T20:50:35.748Z,38.60
2017-06-02T20:53:04.883Z,38.60
2017-06-02T20:55:33.950Z,39.00
2017-06-02T20:58:03.056Z,39.10
2017-06-02T21:00:32.163Z,39.40
2017-06-02T21:03:01.458Z,39.60
2017-06-02T21:05:30.557Z,39.50
2017-06-02T21:07:59.652Z,39.90
2017-06-02T21:10:28.844Z,40.00
2017-06-02T21:12:57.938Z,40.00
2017-06-02T21:15:27.242Z,39.90
2017-06-02T21:17:56.334Z,39.80
2017-06-02T21:20:25.431Z,39.60
2017-06-02T21:22:54.829Z,39.80
2017-06-02T21:25:23.931Z,39.90
2017-06-02T21:27:53.025Z,38.80
2017-06-02T21:30:22.108Z,38.80
2017-06-02T21:32:51.220Z,38.10
2017-06-02T21:35:20.308Z,38.30
2017-06-02T21:37:49.357Z,38.20
2017-06-02T21:40:18.503Z,38.30
2017-06-02T21:42:47.612Z,37.70
2017-06-02T21:45:16.707Z,37.50
2017-06-02T21:47:46.012Z,37.00
2017-06-02T21:50:15.183Z,36.90
2017-06-02T21:52:44.608Z,36.40
2017-06-02T21:55:13.660Z,36.30
2017-06-02T21:57:42.777Z,36.20
2017-06-02T22:00:11.859Z,35.80
2017-06-02T22:02:40.970Z,35.00
2017-06-02T22:05:10.387Z,34.40
2017-06-02T22:07:40.500Z,34.20
2017-06-02T22:10:09.590Z,33.90
2017-06-02T22:12:38.675Z,34.10
2017-06-02T22:15:07.977Z,33.70
2017-06-02T22:17:37.048Z,34.10
2017-06-02T22:20:06.584Z,32.90
2017-06-02T22:22:35.658Z,32.90
2017-06-02T22:25:04.767Z,33.30
2017-06-02T22:27:33.964Z,33.10
2017-06-02T22:30:03.997Z,33.40
2017-06-02T22:32:33.285Z,33.00
2017-06-02T22:35:02.360Z,33.40
2017-06-02T22:37:31.467Z,32.70
2017-06-02T22:40:00.590Z,32.80
2017-06-02T22:42:29.766Z,32.70
2017-06-02T22:44:58.847Z,32.30
2017-06-02T22:47:27.930Z,33.10
2017-06-02T22:49:57.252Z,33.30
2017-06-02T22:52:26.377Z,32.70
2017-06-02T22:54:55.540Z,32.80
2017-06-02T22:57:24.730Z,33.10
2017-06-02T22:59:53.785Z,33.90
2017-06-02T23:02:22.939Z,33.70
2017-06-02T23:04:52.016Z,33.90
2017-06-02T23:07:21.523Z,34.10
2017-06-02T23:10:23.115Z,34.10
2017-06-02T23:12:51.657Z,34.20
2017-06-02T23:15:20.044Z,34.60
2017-06-02T23:17:48.583Z,34.10
2017-06-02T23:20:16.895Z,34.50
2017-06-02T23:22:45.208Z,34.90
2017-06-02T23:25:13.550Z,34.90
2017-06-02T23:27:41.870Z,35.30
2017-06-02T23:30:10.215Z,35.70
2017-06-02T23:32:38.579Z,35.60
2017-06-02T23:35:07.671Z,36.10
2017-06-02T23:37:36.053Z,36.70
2017-06-02T23:40:05.761Z,37.00
2017-06-02T23:42:34.342Z,36.90
2017-06-02T23:45:02.765Z,37.30
2017-06-02T23:47:31.306Z,38.00
2017-06-02T23:49:59.792Z,38.50
2017-06-02T23:52:28.162Z,38.60
2017-06-02T23:54:56.643Z,39.10
2017-06-02T23:57:24.958Z,39.10
2017-06-02T23:59:53.298Z,39.60
